createdAt,value
2022-12-18T00:01:21.417Z,-3.97
2022-12-18T00:03:48.787Z,-4.05
2022-12-18T00:06:16.702Z,-4.06
2022-12-18T00:08:44.432Z,-4.11
2022-12-18T00:11:23.181Z,-4.19
2022-12-18T00:13:50.689Z,-4.29
2022-12-18T00:16:23.081Z,-4.31
2022-12-18T00:18:51.249Z,-4.36
2022-12-18T00:21:18.702Z,-4.36
2022-12-18T00:23:46.752Z,-4.32
2022-12-18T00:26:21.677Z,-4.28
2022-12-18T00:28:49.012Z,-4.29
2022-12-18T00:31:18.401Z,-4.28
2022-12-18T00:33:45.379Z,-4.31
2022-12-18T00:36:15.773Z,-4.36
2022-12-18T00:38:42.528Z,-4.46
2022-12-18T00:41:10.680Z,-4.48
2022-12-18T00:43:38.961Z,-4.49
2022-12-18T00:46:06.463Z,-4.51
2022-12-18T00:48:33.180Z,-4.54
2022-12-18T00:50:59.684Z,-4.57
2022-12-18T00:53:26.236Z,-4.50
2022-12-18T00:55:52.775Z,-4.51
2022-12-18T00:58:19.717Z,-4.51
2022-12-18T01:00:46.329Z,-4.50
2022-12-18T01:03:15.743Z,-4.52
2022-12-18T01:05:43.029Z,-4.54
2022-12-18T01:08:10.224Z,-4.55
2022-12-18T01:10:36.806Z,-4.56
2022-12-18T01:13:03.384Z,-4.57
2022-12-18T01:15:29.879Z,-4.53
2022-12-18T01:17:56.406Z,-4.54
2022-12-18T01:20:23.042Z,-4.54
2022-12-18T01:22:49.564Z,-4.52
2022-12-18T01:25:16.213Z,-4.50
2022-12-18T01:27:42.720Z,-4.56
2022-12-18T01:30:09.696Z,-4.64
2022-12-18T01:32:36.237Z,-4.73
2022-12-18T01:35:03.198Z,-4.81
2022-12-18T01:37:29.980Z,-4.88
2022-12-18T01:39:56.577Z,-4.85
2022-12-18T01:42:23.149Z,-4.91
2022-12-18T01:45:12.775Z,-4.93
2022-12-18T01:47:41.227Z,-4.92
2022-12-18T01:50:18.461Z,-4.96
2022-12-18T01:52:48.693Z,-4.94
2022-12-18T01:55:19.261Z,-5.00
2022-12-18T01:57:47.308Z,-4.99
2022-12-18T02:00:18.505Z,-4.98
2022-12-18T02:02:47.220Z,-4.99
2022-12-18T02:05:18.762Z,-5.02
2022-12-18T02:08:07.649Z,-5.05
2022-12-18T02:10:48.105Z,-5.08
2022-12-18T02:13:25.099Z,-5.14
2022-12-18T02:16:00.616Z,-5.15
2022-12-18T02:18:41.957Z,-5.10
2022-12-18T02:21:35.255Z,-5.10
2022-12-18T02:24:18.513Z,-5.12
2022-12-18T02:26:54.323Z,-5.15
2022-12-18T02:29:29.836Z,-5.13
2022-12-18T02:32:00.252Z,-5.09
2022-12-18T02:34:31.351Z,-5.14
2022-12-18T02:37:01.052Z,-5.11
2022-12-18T02:39:30.320Z,-5.07
2022-12-18T02:41:58.526Z,-5.05
2022-12-18T02:44:25.061Z,-5.05
2022-12-18T02:46:53.527Z,-5.12
2022-12-18T02:49:40.769Z,-5.18
2022-12-18T02:52:13.197Z,-5.29
2022-12-18T02:55:01.401Z,-5.37
2022-12-18T02:57:49.231Z,-5.44
2022-12-18T03:00:22.586Z,-5.54
2022-12-18T03:03:04.410Z,-5.58
2022-12-18T03:05:54.530Z,-5.59
2022-12-18T03:08:43.518Z,-5.59
2022-12-18T03:11:12.250Z,-5.61
2022-12-18T03:13:51.865Z,-5.68
2022-12-18T03:16:24.211Z,-5.68
2022-12-18T03:18:56.927Z,-5.71
2022-12-18T03:21:29.945Z,-5.72
2022-12-18T03:23:57.798Z,-5.72
2022-12-18T03:26:28.078Z,-5.70
2022-12-18T03:29:00.380Z,-5.67
2022-12-18T03:31:30.588Z,-5.68
2022-12-18T03:34:02.009Z,-5.71
2022-12-18T03:36:29.019Z,-5.67
2022-12-18T03:38:55.549Z,-5.72
2022-12-18T03:41:46.112Z,-5.85
2022-12-18T03:44:18.156Z,-5.86
2022-12-18T03:47:13.793Z,-5.85
2022-12-18T03:49:53.854Z,-5.88
2022-12-18T03:52:40.681Z,-5.87
2022-12-18T03:55:10.203Z,-5.95
2022-12-18T03:57:38.306Z,-5.94
2022-12-18T04:00:12.976Z,-6.00
2022-12-18T04:02:41.252Z,-6.02
2022-12-18T04:05:09.449Z,-6.01
2022-12-18T04:07:37.053Z,-6.03
2022-12-18T04:10:05.469Z,-6.03
2022-12-18T04:12:32.028Z,-5.98
2022-12-18T04:14:58.660Z,-5.98
2022-12-18T04:17:25.505Z,-5.99
2022-12-18T04:19:52.041Z,-5.99
2022-12-18T04:22:21.149Z,-6.00
2022-12-18T04:24:47.689Z,-6.01
2022-12-18T04:27:14.244Z,-6.05
2022-12-18T04:29:40.878Z,-6.03
2022-12-18T04:32:08.204Z,-5.98
2022-12-18T04:34:34.704Z,-5.97
2022-12-18T04:37:01.257Z,-5.95
2022-12-18T04:39:27.902Z,-5.93
2022-12-18T04:41:54.460Z,-5.94
2022-12-18T04:44:21.438Z,-5.92
2022-12-18T04:46:48.019Z,-5.90
2022-12-18T04:49:14.658Z,-5.89
2022-12-18T04:51:41.177Z,-5.76
2022-12-18T04:54:07.649Z,-5.73
2022-12-18T04:56:34.208Z,-5.76
2022-12-18T04:59:00.723Z,-5.78
2022-12-18T05:01:34.109Z,-5.83
2022-12-18T05:04:01.924Z,-5.85
2022-12-18T05:06:28.464Z,-5.88
2022-12-18T05:08:54.946Z,-5.91
2022-12-18T05:11:21.681Z,-5.92
2022-12-18T05:13:48.240Z,-5.99
2022-12-18T05:16:15.603Z,-6.02
2022-12-18T05:18:42.658Z,-6.03
2022-12-18T05:21:09.518Z,-6.05
2022-12-18T05:23:37.215Z,-6.04
2022-12-18T05:26:06.202Z,-6.05
2022-12-18T05:28:34.447Z,-6.03
2022-12-18T05:31:03.274Z,-6.03
2022-12-18T05:33:32.792Z,-6.05
2022-12-18T05:36:04.575Z,-6.04
2022-12-18T05:38:32.247Z,-6.03
2022-12-18T05:40:59.269Z,-6.04
2022-12-18T05:43:27.264Z,-6.07
2022-12-18T05:45:54.373Z,-6.09
2022-12-18T05:48:21.585Z,-6.10
2022-12-18T05:50:49.494Z,-6.11
2022-12-18T05:53:18.915Z,-6.11
2022-12-18T05:55:45.499Z,-6.11
2022-12-18T05:58:13.701Z,-6.13
2022-12-18T06:00:43.386Z,-6.15
2022-12-18T06:03:12.269Z,-6.18
2022-12-18T06:05:44.316Z,-6.19
2022-12-18T06:08:11.902Z,-6.14
2022-12-18T06:10:38.945Z,-6.14
2022-12-18T06:13:06.768Z,-6.13
2022-12-18T06:15:34.032Z,-6.16
2022-12-18T06:18:01.689Z,-6.14
2022-12-18T06:20:33.231Z,-6.13
2022-12-18T06:23:00.336Z,-6.13
2022-12-18T06:25:27.147Z,-6.16
2022-12-18T06:27:53.698Z,-6.20
2022-12-18T06:30:20.524Z,-6.24
2022-12-18T06:32:50.496Z,-6.23
2022-12-18T06:35:19.574Z,-6.21
2022-12-18T06:37:47.695Z,-6.15
2022-12-18T06:40:14.196Z,-6.13
2022-12-18T06:42:40.741Z,-6.13
2022-12-18T06:45:07.790Z,-6.15
2022-12-18T06:47:34.336Z,-6.15
2022-12-18T06:50:00.820Z,-6.16
2022-12-18T06:52:27.319Z,-6.14
2022-12-18T06:54:53.829Z,-6.15
2022-12-18T06:57:20.428Z,-6.14
2022-12-18T06:59:46.954Z,-6.14
2022-12-18T07:02:14.252Z,-6.12
2022-12-18T07:04:41.221Z,-6.11
2022-12-18T07:07:07.833Z,-6.12
2022-12-18T07:09:34.457Z,-6.08
2022-12-18T07:12:00.978Z,-6.04
2022-12-18T07:14:27.651Z,-5.98
2022-12-18T07:16:54.275Z,-5.93
2022-12-18T07:19:21.407Z,-5.89
2022-12-18T07:21:47.910Z,-5.86
2022-12-18T07:24:14.429Z,-5.80
2022-12-18T07:26:40.922Z,-5.73
2022-12-18T07:29:07.541Z,-5.67
2022-12-18T07:31:34.161Z,-5.61
2022-12-18T07:34:00.737Z,-5.55
2022-12-18T07:36:27.373Z,-5.47
2022-12-18T07:38:54.003Z,-5.41
2022-12-18T07:41:20.951Z,-5.33
2022-12-18T07:43:48.161Z,-5.23
2022-12-18T07:46:16.599Z,-5.13
2022-12-18T07:48:46.126Z,-4.98
2022-12-18T07:51:17.513Z,-4.85
2022-12-18T07:53:45.206Z,-4.74
2022-12-18T07:56:30.522Z,-4.57
2022-12-18T07:58:59.143Z,-4.34
2022-12-18T08:01:26.363Z,-4.10
2022-12-18T08:03:53.064Z,-3.93
2022-12-18T08:06:22.778Z,-3.80
2022-12-18T08:08:55.821Z,-3.55
2022-12-18T08:11:23.650Z,-3.26
2022-12-18T08:13:50.407Z,-2.99
2022-12-18T08:16:18.013Z,-2.65
2022-12-18T08:18:44.733Z,-2.29
2022-12-18T08:21:22.004Z,-1.85
2022-12-18T08:23:49.050Z,-1.50
2022-12-18T08:26:16.899Z,-1.13
2022-12-18T08:28:43.771Z,-0.70
2022-12-18T08:31:10.542Z,-0.32
2022-12-18T08:33:39.024Z,0.02
2022-12-18T08:36:06.480Z,0.26
2022-12-18T08:38:34.077Z,0.53
2022-12-18T08:41:01.786Z,1.00
2022-12-18T08:43:47.104Z,1.45
2022-12-18T08:46:13.990Z,2.07
2022-12-18T08:48:43.521Z,2.67
2022-12-18T08:51:10.731Z,3.17
2022-12-18T08:53:37.905Z,3.62
2022-12-18T08:56:05.692Z,4.06
2022-12-18T08:58:32.378Z,4.49
2022-12-18T09:01:03.375Z,4.91
2022-12-18T09:03:30.495Z,5.42
2022-12-18T09:05:57.476Z,5.70
2022-12-18T09:08:24.299Z,6.08
2022-12-18T09:10:52.554Z,6.33
2022-12-18T09:13:19.662Z,6.72
2022-12-18T09:15:48.749Z,7.06
2022-12-18T09:18:17.197Z,7.46
2022-12-18T09:20:44.057Z,7.64
2022-12-18T09:23:11.084Z,7.90
2022-12-18T09:25:38.541Z,8.28
2022-12-18T09:28:08.183Z,8.56
2022-12-18T09:30:35.405Z,8.82
2022-12-18T09:33:02.605Z,9.15
2022-12-18T09:35:29.158Z,9.51
2022-12-18T09:37:55.828Z,9.68
2022-12-18T09:40:26.561Z,9.92
2022-12-18T09:42:58.445Z,10.19
2022-12-18T09:45:25.402Z,10.31
2022-12-18T09:47:54.980Z,10.58
2022-12-18T09:50:40.892Z,10.93
2022-12-18T09:53:16.073Z,11.31
2022-12-18T09:55:45.845Z,11.34
2022-12-18T09:58:42.987Z,11.68
2022-12-18T10:01:24.231Z,11.87
2022-12-18T10:03:52.515Z,12.03
2022-12-18T10:06:31.048Z,12.37
2022-12-18T10:09:24.024Z,12.85
2022-12-18T10:12:08.580Z,13.11
2022-12-18T10:15:00.890Z,13.04
2022-12-18T10:18:00.124Z,12.81
2022-12-18T10:20:43.664Z,13.00
2022-12-18T10:23:43.678Z,13.24
2022-12-18T10:26:14.503Z,13.23
2022-12-18T10:28:42.947Z,13.23
2022-12-18T10:31:20.641Z,13.62
2022-12-18T10:33:47.526Z,13.53
2022-12-18T10:36:14.293Z,13.74
2022-12-18T10:38:41.687Z,13.46
2022-12-18T10:41:23.050Z,13.36
2022-12-18T10:44:09.575Z,13.82
2022-12-18T10:46:36.180Z,14.30
2022-12-18T10:49:02.971Z,14.55
2022-12-18T10:51:37.313Z,14.55
2022-12-18T10:54:06.361Z,14.55
2022-12-18T10:56:36.836Z,15.08
2022-12-18T10:59:06.838Z,15.40
2022-12-18T11:01:58.595Z,15.22
2022-12-18T11:04:32.777Z,15.15
2022-12-18T11:07:02.374Z,15.02
2022-12-18T11:09:30.008Z,15.16
2022-12-18T11:12:00.251Z,15.23
2022-12-18T11:14:48.808Z,15.08
2022-12-18T11:17:35.896Z,15.11
2022-12-18T11:20:19.422Z,14.72
2022-12-18T11:22:56.890Z,14.98
2022-12-18T11:25:33.233Z,15.46
2022-12-18T11:28:05.677Z,15.79
2022-12-18T11:30:37.344Z,16.04
2022-12-18T11:33:12.054Z,16.05
2022-12-18T11:35:48.792Z,15.76
2022-12-18T11:38:37.796Z,15.84
2022-12-18T11:41:23.577Z,16.20
2022-12-18T11:43:59.107Z,16.55
2022-12-18T11:46:42.087Z,16.82
2022-12-18T11:49:13.357Z,16.86
2022-12-18T11:51:50.049Z,17.14
2022-12-18T11:54:17.382Z,17.04
2022-12-18T11:56:49.041Z,16.50
2022-12-18T11:59:26.773Z,16.47
2022-12-18T12:02:00.294Z,16.37
2022-12-18T12:04:42.569Z,15.88
2022-12-18T12:07:35.725Z,15.84
2022-12-18T12:10:17.256Z,16.05
2022-12-18T12:13:00.693Z,15.88
2022-12-18T12:15:58.349Z,15.61
2022-12-18T12:18:45.127Z,15.83
2022-12-18T12:21:17.636Z,15.78
2022-12-18T12:23:52.131Z,15.68
2022-12-18T12:26:46.335Z,15.60
2022-12-18T12:29:33.690Z,15.69
2022-12-18T12:32:15.224Z,15.84
2022-12-18T12:35:17.579Z,15.74
2022-12-18T12:37:59.240Z,15.55
2022-12-18T12:43:25.277Z,14.95
2022-12-18T12:46:03.571Z,14.81
2022-12-18T12:48:30.847Z,14.71
2022-12-18T12:50:58.877Z,14.45
2022-12-18T12:53:31.752Z,14.31
2022-12-18T12:55:58.975Z,14.06
2022-12-18T12:58:47.470Z,14.19
2022-12-18T13:04:32.704Z,14.22
2022-12-18T13:07:27.187Z,14.12
2022-12-18T13:10:26.883Z,13.99
2022-12-18T13:13:09.009Z,13.82
2022-12-18T13:13:43.815Z,14.14
2022-12-18T13:15:46.881Z,13.55
2022-12-18T13:18:16.214Z,13.57
2022-12-18T13:20:55.366Z,13.33
2022-12-18T13:23:26.709Z,13.33
2022-12-18T13:26:13.897Z,13.23
2022-12-18T13:28:50.254Z,13.04
2022-12-18T13:31:41.848Z,12.68
2022-12-18T13:34:28.119Z,12.52
2022-12-18T13:37:00.378Z,12.37
2022-12-18T13:39:36.786Z,12.02
2022-12-18T13:42:06.985Z,11.85
2022-12-18T13:44:41.926Z,11.67
2022-12-18T13:47:34.815Z,11.44
2022-12-18T13:50:10.486Z,11.21
2022-12-18T13:52:40.302Z,11.09
2022-12-18T13:55:17.397Z,10.85
2022-12-18T13:57:44.268Z,10.73
2022-12-18T14:00:19.784Z,10.57
2022-12-18T14:02:47.381Z,10.42
2022-12-18T14:05:35.922Z,10.37
2022-12-18T14:08:13.685Z,10.15
2022-12-18T14:10:49.176Z,9.77
2022-12-18T14:13:38.313Z,9.66
2022-12-18T14:16:08.461Z,9.31
2022-12-18T14:18:49.253Z,9.04
2022-12-18T14:21:36.186Z,8.83
2022-12-18T14:24:19.767Z,8.37
2022-12-18T14:26:49.632Z,7.87
2022-12-18T14:29:28.818Z,7.39
2022-12-18T14:32:18.661Z,7.19
2022-12-18T14:34:51.144Z,6.94
2022-12-18T14:37:22.016Z,6.74
2022-12-18T14:40:07.296Z,6.45
2022-12-18T14:42:35.472Z,6.25
2022-12-18T14:45:42.634Z,6.04
2022-12-18T14:48:12.692Z,5.82
2022-12-18T14:50:41.035Z,5.53
2022-12-18T14:53:07.609Z,5.22
2022-12-18T14:55:34.196Z,5.16
2022-12-18T14:58:00.762Z,4.94
2022-12-18T15:00:27.521Z,4.63
2022-12-18T15:02:56.546Z,4.25
2022-12-18T15:05:29.414Z,3.91
2022-12-18T15:07:58.120Z,3.47
2022-12-18T15:10:29.053Z,3.09
2022-12-18T15:13:02.435Z,2.97
2022-12-18T15:15:38.111Z,2.81
2022-12-18T15:18:08.915Z,2.58
2022-12-18T15:20:51.457Z,2.28
2022-12-18T15:23:26.637Z,2.08
2022-12-18T15:26:02.043Z,1.85
2022-12-18T15:28:35.246Z,1.61
2022-12-18T15:31:32.230Z,1.29
2022-12-18T15:34:00.228Z,1.11
2022-12-18T15:36:30.713Z,0.99
2022-12-18T15:39:04.679Z,0.89
2022-12-18T15:41:35.800Z,0.73
2022-12-18T15:44:04.068Z,0.59
2022-12-18T15:46:31.914Z,0.43
2022-12-18T15:49:02.239Z,0.35
2022-12-18T15:51:33.605Z,0.25
2022-12-18T15:54:02.633Z,-0.04
2022-12-18T15:56:47.305Z,-0.09
2022-12-18T15:59:20.561Z,-0.22
2022-12-18T16:01:51.237Z,-0.32
2022-12-18T16:04:23.094Z,-0.35
2022-12-18T16:09:37.582Z,-0.56
2022-12-18T16:12:04.840Z,-0.63
2022-12-18T16:14:33.059Z,-0.85
2022-12-18T16:17:02.177Z,-0.85
2022-12-18T16:19:29.437Z,-0.92
2022-12-18T16:21:57.931Z,-1.15
2022-12-18T16:24:30.415Z,-1.26
2022-12-18T16:27:00.293Z,-1.30
2022-12-18T16:29:28.662Z,-1.43
2022-12-18T16:31:56.105Z,-1.47
2022-12-18T16:34:29.837Z,-1.54
2022-12-18T16:37:05.552Z,-1.64
2022-12-18T16:39:35.277Z,-1.72
2022-12-18T16:42:15.508Z,-1.85
2022-12-18T16:44:42.335Z,-1.93
2022-12-18T16:47:09.403Z,-1.95
2022-12-18T16:49:37.712Z,-2.03
2022-12-18T16:52:05.672Z,-2.04
2022-12-18T16:54:33.601Z,-2.08
2022-12-18T16:57:00.878Z,-2.12
2022-12-18T16:59:27.678Z,-2.23
2022-12-18T17:01:55.704Z,-2.34
2022-12-18T17:04:22.373Z,-2.43
2022-12-18T17:06:51.866Z,-2.59
2022-12-18T17:09:25.943Z,-2.67
2022-12-18T17:11:54.264Z,-2.65
2022-12-18T17:14:23.946Z,-2.68
2022-12-18T17:17:07.333Z,-2.67
2022-12-18T17:19:37.801Z,-2.75
2022-12-18T17:22:04.950Z,-2.78
2022-12-18T17:24:34.752Z,-2.78
2022-12-18T17:27:02.874Z,-2.80
2022-12-18T17:29:29.421Z,-2.88
2022-12-18T17:31:55.932Z,-2.97
2022-12-18T17:34:23.866Z,-3.11
2022-12-18T17:36:50.389Z,-3.28
2022-12-18T17:39:20.020Z,-3.32
2022-12-18T17:41:47.565Z,-3.37
2022-12-18T17:44:14.421Z,-3.37
2022-12-18T17:46:41.973Z,-3.48
2022-12-18T17:49:09.330Z,-3.56
2022-12-18T17:51:35.897Z,-3.59
2022-12-18T17:54:02.528Z,-3.73
2022-12-18T17:56:29.125Z,-3.79
2022-12-18T17:58:55.724Z,-3.73
2022-12-18T18:01:24.778Z,-3.75
2022-12-18T18:03:53.914Z,-3.76
2022-12-18T18:06:20.745Z,-3.77
2022-12-18T18:08:47.818Z,-3.83
2022-12-18T18:11:38.088Z,-3.95
2022-12-18T18:14:16.353Z,-3.98
2022-12-18T18:16:52.483Z,-4.05
2022-12-18T18:19:24.111Z,-4.12
2022-12-18T18:21:53.286Z,-4.15
2022-12-18T18:24:23.310Z,-4.21
2022-12-18T18:26:49.968Z,-4.43
2022-12-18T18:29:19.733Z,-4.49
2022-12-18T18:31:46.883Z,-4.54
2022-12-18T18:34:18.582Z,-4.53
2022-12-18T18:36:46.289Z,-4.51
2022-12-18T18:39:13.914Z,-4.49
2022-12-18T18:41:40.721Z,-4.53
2022-12-18T18:44:10.127Z,-4.45
2022-12-18T18:46:36.673Z,-4.41
2022-12-18T18:49:03.475Z,-4.41
2022-12-18T18:51:34.607Z,-4.42
2022-12-18T18:54:01.726Z,-4.39
2022-12-18T18:59:15.425Z,-4.46
2022-12-18T19:01:42.095Z,-4.48
2022-12-18T19:04:08.815Z,-4.52
2022-12-18T19:06:35.422Z,-4.57
2022-12-18T19:09:04.985Z,-4.60
2022-12-18T19:11:51.007Z,-4.60
2022-12-18T19:14:17.814Z,-4.56
2022-12-18T19:16:45.511Z,-4.55
2022-12-18T19:19:13.274Z,-4.60
2022-12-18T19:21:40.837Z,-4.61
2022-12-18T19:24:07.814Z,-4.61
2022-12-18T19:26:36.284Z,-4.57
2022-12-18T19:29:08.808Z,-4.59
2022-12-18T19:31:37.170Z,-4.61
2022-12-18T19:34:07.840Z,-4.64
2022-12-18T19:36:36.994Z,-4.67
2022-12-18T19:39:15.459Z,-4.72
2022-12-18T19:41:42.829Z,-4.77
2022-12-18T19:44:12.518Z,-4.81
2022-12-18T19:46:41.627Z,-4.89
2022-12-18T19:49:13.561Z,-4.99
2022-12-18T19:51:44.322Z,-5.03
2022-12-18T19:54:16.365Z,-5.08
2022-12-18T19:56:44.189Z,-5.10
2022-12-18T19:59:10.782Z,-5.13
2022-12-18T20:01:37.543Z,-5.19
2022-12-18T20:04:04.791Z,-5.35
2022-12-18T20:06:35.510Z,-5.47
2022-12-18T20:09:05.587Z,-5.53
2022-12-18T20:11:37.510Z,-5.65
2022-12-18T20:14:08.348Z,-5.67
2022-12-18T20:16:35.382Z,-5.76
2022-12-18T20:19:02.305Z,-5.81
2022-12-18T20:21:29.613Z,-5.82
2022-12-18T20:23:56.392Z,-5.86
2022-12-18T20:26:24.034Z,-5.87
2022-12-18T20:28:50.814Z,-5.85
2022-12-18T20:31:17.606Z,-5.84
2022-12-18T20:33:46.320Z,-5.85
2022-12-18T20:36:21.428Z,-5.88
2022-12-18T20:38:50.886Z,-5.92
2022-12-18T20:41:19.708Z,-5.89
2022-12-18T20:43:46.946Z,-5.90
2022-12-18T20:46:16.071Z,-5.90
2022-12-18T20:48:43.697Z,-5.90
2022-12-18T20:51:13.798Z,-5.87
2022-12-18T20:53:41.793Z,-5.88
2022-12-18T20:56:21.600Z,-5.89
2022-12-18T20:58:50.236Z,-5.89
2022-12-18T21:01:20.681Z,-5.88
2022-12-18T21:03:48.212Z,-5.89
2022-12-18T21:06:17.309Z,-5.90
2022-12-18T21:08:44.707Z,-5.90
2022-12-18T21:11:35.625Z,-5.90
2022-12-18T21:14:04.389Z,-5.93
2022-12-18T21:16:31.537Z,-5.94
2022-12-18T21:18:58.429Z,-5.93
2022-12-18T21:21:26.969Z,-5.96
2022-12-18T21:23:54.661Z,-6.00
2022-12-18T21:26:26.829Z,-6.12
2022-12-18T21:29:02.027Z,-6.15
2022-12-18T21:31:31.955Z,-6.14
2022-12-18T21:34:01.287Z,-6.12
2022-12-18T21:36:32.262Z,-6.11
2022-12-18T21:38:59.508Z,-6.13
2022-12-18T21:41:45.741Z,-6.14
2022-12-18T21:44:17.404Z,-6.17
2022-12-18T21:46:51.360Z,-6.25
2022-12-18T21:49:21.582Z,-6.28
2022-12-18T21:51:53.868Z,-6.26
2022-12-18T21:54:21.045Z,-6.32
2022-12-18T21:56:51.216Z,-6.34
2022-12-18T21:59:30.941Z,-6.36
2022-12-18T22:02:01.272Z,-6.44
2022-12-18T22:04:28.769Z,-6.53
2022-12-18T22:06:56.529Z,-6.59
2022-12-18T22:09:24.716Z,-6.59
2022-12-18T22:11:52.535Z,-6.66
2022-12-18T22:14:20.350Z,-6.72
2022-12-18T22:16:47.865Z,-6.80
2022-12-18T22:19:15.027Z,-6.87
2022-12-18T22:21:45.861Z,-6.83
2022-12-18T22:24:24.227Z,-6.80
2022-12-18T22:26:53.060Z,-6.88
2022-12-18T22:29:43.008Z,-6.90
2022-12-18T22:32:16.332Z,-6.90
2022-12-18T22:34:43.583Z,-6.91
2022-12-18T22:37:12.234Z,-6.94
2022-12-18T22:39:39.228Z,-7.00
2022-12-18T22:42:06.102Z,-7.00
2022-12-18T22:44:32.664Z,-7.00
2022-12-18T22:47:06.258Z,-7.02
2022-12-18T22:49:35.093Z,-7.09
2022-12-18T22:52:03.211Z,-7.15
2022-12-18T22:54:29.922Z,-7.20
2022-12-18T22:56:57.061Z,-7.21
2022-12-18T22:59:24.051Z,-7.19
2022-12-18T23:01:58.564Z,-7.19
2022-12-18T23:04:30.617Z,-7.18
2022-12-18T23:07:05.062Z,-7.16
2022-12-18T23:09:32.857Z,-7.17
2022-12-18T23:11:59.505Z,-7.27
2022-12-18T23:14:26.573Z,-7.35
2022-12-18T23:16:53.350Z,-7.41
2022-12-18T23:19:20.490Z,-7.48
2022-12-18T23:21:47.403Z,-7.49
2022-12-18T23:24:14.619Z,-7.53
2022-12-18T23:26:41.256Z,-7.58
2022-12-18T23:29:07.927Z,-7.58
2022-12-18T23:31:37.402Z,-7.61
2022-12-18T23:34:05.470Z,-7.68
2022-12-18T23:36:40.297Z,-7.71
2022-12-18T23:39:28.784Z,-7.69
2022-12-18T23:41:57.989Z,-7.68
2022-12-18T23:44:25.001Z,-7.67
2022-12-18T23:46:51.582Z,-7.71
2022-12-18T23:49:18.153Z,-7.73
2022-12-18T23:51:44.636Z,-7.75
2022-12-18T23:54:11.211Z,-7.76
2022-12-18T23:56:37.772Z,-7.78
2022-12-18T23:59:04.583Z,-7.80
